Terminal Aerodrome Forecast
Issued by NWS Chicago, IL

Home | Current Version | Previous Version | Graphics & Text | Print | Product List | Glossary On
Versions: 1 2 3 4 5 6 7 8 9 10 11 12 13 14 15 16 17 18 19 20 21 22 23 24 25 26 27 28 29 30 31
000
FTUS43 KLOT 282324
TAFRFD
TAF
KRFD 282324Z 2900/2924 06005KT P6SM BKN035 BKN250
     FM290300 04007KT P6SM SCT025 BKN180
     FM290600 06007KT 3SM BR SCT025 BKN250
      TEMPO 2910/2914 1SM BR
     FM291400 08012G18KT P6SM SCT025 BKN120
     FM291900 07015G23KT P6SM SCT015 BKN060 PROB30 2922/2924 4SM -RA
      BKN030=

USA.gov is the U.S. government's official web portal to all federal, state and local government web resources and services.